Pinckard, Alabama
Current Conditions -  °F | °C
As of 8:01 AM on Monday 24 Nov 2014 (Local Time) from KDHN Reporting Station
Haze Haze  
Wind Chill: 66°   Ceiling: 200
Heat Index: 66°   Visibility: 1.5mi
Dew Point: 66°   Wind: 7mph
Humidity: 100%   Direction: 230°SW
Pressure: 29.88"   Gusts: NA
Location:  31.31°N, 85.55°W
Report Text: KDHN 241401Z 23006KT 1 1/2SM BR OVC002 19/19 A2988 RMK AO2
Loading
Personal Weather Stations






























Interactive Weather Map New forecast layout! Learn more

10-Day Weather Forecast

Advertisements
Track Severe Weather on mobile